createdAt,value
2022-12-14T04:54:21.419Z,14.90
2022-12-14T04:57:00.534Z,13.30
2022-12-14T04:59:32.574Z,14.40
2022-12-14T05:02:46.407Z,13.70
2022-12-14T05:08:23.089Z,11.20
2022-12-14T05:11:39.446Z,12.30
2022-12-14T05:14:00.910Z,14.20
2022-12-14T05:16:33.072Z,12.80
2022-12-14T05:19:09.569Z,13.60
2022-12-14T05:21:47.553Z,11.10
2022-12-14T05:24:19.480Z,11.30
2022-12-14T05:26:51.380Z,13.00
2022-12-14T05:29:23.304Z,12.30
2022-12-14T05:31:55.223Z,15.80
2022-12-14T05:34:27.322Z,14.80
2022-12-14T05:36:59.381Z,13.20
2022-12-14T05:39:31.308Z,13.30
2022-12-14T05:42:03.322Z,13.90
2022-12-14T05:44:35.396Z,14.30
2022-12-14T05:47:07.299Z,13.20
2022-12-14T05:49:39.205Z,13.40
2022-12-14T05:52:11.114Z,14.00
2022-12-14T05:54:43.027Z,13.30
2022-12-14T05:57:15.014Z,13.00
2022-12-14T05:59:46.951Z,14.20
2022-12-14T06:02:19.030Z,13.20
2022-12-14T06:04:51.086Z,13.90
2022-12-14T06:07:27.818Z,13.60
2022-12-14T06:10:00.500Z,13.10
2022-12-14T06:12:32.844Z,12.90
2022-12-14T06:15:05.117Z,15.70
2022-12-14T06:17:37.109Z,15.10
2022-12-14T06:20:09.616Z,13.90
2022-12-14T06:22:45.856Z,14.70
2022-12-14T06:25:19.718Z,13.70
2022-12-14T06:27:55.066Z,15.70
2022-12-14T06:30:26.996Z,13.30
2022-12-14T06:32:58.897Z,14.50
2022-12-14T06:35:30.849Z,14.00
2022-12-14T06:38:02.809Z,15.60
2022-12-14T06:40:34.708Z,16.00
2022-12-14T06:43:07.146Z,15.30
2022-12-14T06:45:39.178Z,15.00
2022-12-14T06:48:11.129Z,17.10
2022-12-14T06:50:43.038Z,14.60
2022-12-14T06:53:15.036Z,15.60
2022-12-14T06:55:49.323Z,15.20
2022-12-14T06:58:21.496Z,14.50
2022-12-14T07:00:53.450Z,15.70
2022-12-14T07:03:25.758Z,15.00
2022-12-14T07:05:59.213Z,16.60
2022-12-14T07:08:32.238Z,15.10
2022-12-14T07:11:06.245Z,17.00
2022-12-14T07:13:39.413Z,15.30
2022-12-14T07:16:16.695Z,17.90
2022-12-14T07:18:49.681Z,16.30
2022-12-14T07:23:54.028Z,17.50
2022-12-14T07:26:27.782Z,18.40
2022-12-14T07:29:02.495Z,17.00
2022-12-14T07:31:34.472Z,19.30
2022-12-14T07:34:06.502Z,22.90
2022-12-14T07:36:38.513Z,18.80
2022-12-14T07:39:14.898Z,16.70
2022-12-14T07:41:47.774Z,17.20
2022-12-14T07:44:23.693Z,18.70
2022-12-14T07:46:55.708Z,20.60
2022-12-14T07:49:27.956Z,16.90
2022-12-14T07:51:59.927Z,19.00
2022-12-14T07:54:32.209Z,18.40
2022-12-14T07:57:04.262Z,18.40
2022-12-14T07:59:36.321Z,22.00
2022-12-14T08:02:12.291Z,20.00
2022-12-14T08:04:44.389Z,18.40
2022-12-14T08:07:16.387Z,22.60
2022-12-14T08:09:48.462Z,19.60
2022-12-14T08:14:53.202Z,20.20
2022-12-14T08:17:25.117Z,19.60
2022-12-14T08:19:57.143Z,22.90
2022-12-14T08:22:29.114Z,19.70
2022-12-14T08:25:01.115Z,20.80
2022-12-14T08:27:33.039Z,23.60
2022-12-14T08:30:05.622Z,20.80
2022-12-14T08:32:37.582Z,19.70
2022-12-14T08:35:09.876Z,20.60
2022-12-14T08:37:47.353Z,22.80
2022-12-14T08:40:19.813Z,22.50
2022-12-14T08:42:51.806Z,21.00
2022-12-14T08:45:24.524Z,17.90
2022-12-14T08:48:00.663Z,25.40
2022-12-14T08:50:32.627Z,22.90
2022-12-14T08:53:04.577Z,22.30
2022-12-14T08:55:38.593Z,22.40
2022-12-14T08:58:11.172Z,20.00
2022-12-14T09:00:43.660Z,22.70
2022-12-14T09:03:15.724Z,20.50
2022-12-14T09:05:47.704Z,22.50
2022-12-14T09:08:19.610Z,20.40
2022-12-14T09:10:52.646Z,19.30
2022-12-14T09:13:24.591Z,19.00
2022-12-14T09:16:01.143Z,22.20
2022-12-14T09:18:34.590Z,23.70
2022-12-14T09:21:06.850Z,20.00
2022-12-14T09:23:39.802Z,22.30
2022-12-14T09:26:14.988Z,22.80
2022-12-14T09:28:50.331Z,19.90
2022-12-14T09:31:24.402Z,20.60
2022-12-14T09:33:56.994Z,21.20
2022-12-14T09:36:29.340Z,22.10
2022-12-14T09:39:01.423Z,19.30
2022-12-14T09:41:50.544Z,19.00
2022-12-14T09:44:43.708Z,19.10
2022-12-14T09:47:43.489Z,20.80
2022-12-14T09:50:18.214Z,21.30
2022-12-14T09:52:56.325Z,19.50
2022-12-14T09:55:33.934Z,19.30
2022-12-14T09:58:21.947Z,18.90
2022-12-14T10:01:15.911Z,19.10
2022-12-14T10:04:20.519Z,19.80
2022-12-14T10:07:18.630Z,18.30
2022-12-14T10:10:12.302Z,17.10
2022-12-14T10:12:50.109Z,20.10
2022-12-14T10:15:27.792Z,20.00
2022-12-14T10:18:59.542Z,19.00
2022-12-14T10:21:33.788Z,21.70
2022-12-14T10:24:07.011Z,18.30
2022-12-14T10:26:44.467Z,19.10
2022-12-14T10:29:26.961Z,17.70
2022-12-14T10:32:04.837Z,18.80
2022-12-14T10:34:40.533Z,16.50
2022-12-14T10:37:36.644Z,17.70
2022-12-14T10:40:34.002Z,17.40
2022-12-14T10:43:19.013Z,18.20
2022-12-14T10:46:00.163Z,17.90
2022-12-14T10:48:41.423Z,17.80
2022-12-14T10:51:20.204Z,16.30
2022-12-14T10:53:56.284Z,18.50
2022-12-14T10:56:32.032Z,15.40
2022-12-14T10:59:22.620Z,16.80
2022-12-14T11:02:09.313Z,16.70
2022-12-14T11:04:49.890Z,18.60
2022-12-14T11:07:25.704Z,15.90
2022-12-14T11:10:23.926Z,15.40
2022-12-14T11:13:00.896Z,17.80
2022-12-14T11:15:45.704Z,16.00
2022-12-14T11:18:18.040Z,17.10
2022-12-14T11:20:54.866Z,16.80
2022-12-14T11:23:36.794Z,15.20
2022-12-14T11:26:21.391Z,16.50
2022-12-14T11:28:54.933Z,15.10
2022-12-14T11:31:43.985Z,16.20
2022-12-14T11:34:28.218Z,13.20
2022-12-14T11:37:23.634Z,14.70
2022-12-14T11:39:59.246Z,14.30
2022-12-14T11:42:31.802Z,16.60
2022-12-14T11:45:29.799Z,15.60
2022-12-14T11:48:14.740Z,15.50
2022-12-14T11:50:49.587Z,20.90
2022-12-14T11:53:23.831Z,16.40
2022-12-14T11:55:58.735Z,14.90
2022-12-14T11:58:37.520Z,13.00
2022-12-14T12:01:15.665Z,15.70
2022-12-14T12:03:50.981Z,14.70
2022-12-14T12:06:28.863Z,18.40
2022-12-14T12:09:04.163Z,16.40
2022-12-14T12:11:37.828Z,12.10
2022-12-14T12:14:36.022Z,15.80
2022-12-14T12:17:19.438Z,14.30
2022-12-14T12:19:52.016Z,13.70
2022-12-14T12:22:26.117Z,13.40
2022-12-14T12:28:18.345Z,14.00
2022-12-14T12:30:53.611Z,13.60
2022-12-14T12:33:35.687Z,18.30
2022-12-14T12:36:09.132Z,14.50
2022-12-14T12:38:50.092Z,14.70
2022-12-14T12:41:46.898Z,15.80
2022-12-14T12:44:59.269Z,12.10
2022-12-14T12:47:46.647Z,14.60
2022-12-14T12:50:28.717Z,14.20
2022-12-14T12:53:12.261Z,13.90
2022-12-14T12:55:54.168Z,12.80
2022-12-14T12:58:33.546Z,13.60
2022-12-14T13:01:19.999Z,14.30
2022-12-14T13:03:55.901Z,13.70
2022-12-14T13:06:32.420Z,14.80
2022-12-14T13:09:33.840Z,12.80
2022-12-14T13:12:09.491Z,13.60
2022-12-14T13:14:49.564Z,15.60
2022-12-14T13:17:26.847Z,14.10
2022-12-14T13:20:02.269Z,13.60
2022-12-14T13:22:34.742Z,13.30
2022-12-14T13:25:21.809Z,14.20
2022-12-14T13:28:09.214Z,12.40
2022-12-14T13:31:03.880Z,14.00
2022-12-14T13:33:41.469Z,13.70
2022-12-14T13:36:40.161Z,14.40
2022-12-14T13:39:46.371Z,11.90
2022-12-14T13:42:23.601Z,12.70
2022-12-14T13:45:04.854Z,11.90
2022-12-14T13:47:41.945Z,15.80
2022-12-14T13:50:37.327Z,13.60
2022-12-14T13:53:24.362Z,14.20
2022-12-14T13:56:00.368Z,13.80
2022-12-14T13:58:38.973Z,13.00
2022-12-14T14:01:46.510Z,13.30
2022-12-14T14:04:22.618Z,12.10
2022-12-14T14:06:57.301Z,13.60
2022-12-14T14:09:29.494Z,15.80
2022-12-14T14:12:25.362Z,15.20
2022-12-14T14:15:25.803Z,17.10
2022-12-14T14:18:21.169Z,16.20
2022-12-14T14:21:14.171Z,22.90
2022-12-14T14:23:58.864Z,15.70
2022-12-14T14:26:34.963Z,20.20
2022-12-14T14:29:24.951Z,17.50
2022-12-14T14:32:25.532Z,20.40
2022-12-14T14:34:57.821Z,20.20
2022-12-14T14:37:35.724Z,16.00
2022-12-14T14:40:29.447Z,17.00
2022-12-14T14:43:29.010Z,22.20
2022-12-14T14:46:05.863Z,18.00
2022-12-14T14:48:42.139Z,18.00
2022-12-14T14:51:29.208Z,17.80
2022-12-14T14:54:37.594Z,16.50
2022-12-14T14:58:10.795Z,14.50
2022-12-14T15:01:00.294Z,17.80
2022-12-14T15:03:48.590Z,16.80
2022-12-14T15:06:26.972Z,15.50
2022-12-14T15:09:02.358Z,16.10
2022-12-14T15:11:50.467Z,18.30
2022-12-14T15:14:48.243Z,17.60
2022-12-14T15:17:23.959Z,17.50
2022-12-14T15:20:00.334Z,16.50
2022-12-14T15:22:42.303Z,16.50
2022-12-14T15:25:23.041Z,16.10
2022-12-14T15:27:57.007Z,15.80
2022-12-14T15:30:29.338Z,14.30
2022-12-14T15:33:10.032Z,14.90
2022-12-14T15:35:49.471Z,15.40
2022-12-14T15:38:28.367Z,13.90
2022-12-14T15:41:06.538Z,15.60
2022-12-14T15:43:46.907Z,16.00
2022-12-14T15:46:24.741Z,15.60
2022-12-14T15:49:05.226Z,14.70
2022-12-14T15:51:42.925Z,15.50
2022-12-14T15:54:18.996Z,14.40
2022-12-14T15:56:57.042Z,13.40
2022-12-14T15:59:35.505Z,13.90
2022-12-14T16:02:24.727Z,14.60
2022-12-14T16:05:00.284Z,14.70
2022-12-14T16:07:39.979Z,13.20
2022-12-14T16:10:32.628Z,15.70
2022-12-14T16:13:10.242Z,14.70
2022-12-14T16:15:43.133Z,12.90
2022-12-14T16:18:16.803Z,14.80
2022-12-14T16:20:59.228Z,15.80
2022-12-14T16:23:40.451Z,17.50
2022-12-14T16:26:17.236Z,16.90
2022-12-14T16:28:50.103Z,15.80
2022-12-14T16:34:14.476Z,22.70
2022-12-14T16:37:08.022Z,23.00
2022-12-14T16:39:46.255Z,23.00
2022-12-14T16:42:26.627Z,26.20
2022-12-14T16:44:58.876Z,26.20
2022-12-14T16:47:34.098Z,28.20
2022-12-14T16:53:29.984Z,28.90
2022-12-14T16:56:04.308Z,27.10
2022-12-14T16:58:36.660Z,23.60
2022-12-14T17:01:09.824Z,25.60
2022-12-14T17:03:42.283Z,38.80
2022-12-14T17:06:23.024Z,30.80
2022-12-14T17:08:55.444Z,24.00
2022-12-14T17:11:28.206Z,28.40
2022-12-14T17:16:32.922Z,25.70
2022-12-14T17:19:05.911Z,27.30
2022-12-14T17:21:38.862Z,26.60
2022-12-14T17:24:17.844Z,26.00
2022-12-14T17:26:52.022Z,25.90
2022-12-14T17:29:26.653Z,21.70
2022-12-14T17:32:02.117Z,26.20
2022-12-14T17:34:34.342Z,22.40
2022-12-14T17:37:19.689Z,23.00
2022-12-14T17:39:51.913Z,23.20
2022-12-14T17:42:24.209Z,24.60
2022-12-14T17:44:57.737Z,20.30
2022-12-14T17:47:30.264Z,20.70
2022-12-14T17:50:02.525Z,22.80
2022-12-14T17:52:34.898Z,24.00
2022-12-14T17:55:07.508Z,21.20
2022-12-14T17:57:39.734Z,23.70
2022-12-14T18:00:52.242Z,21.70
2022-12-14T18:03:24.772Z,22.00
2022-12-14T18:05:59.715Z,20.60
2022-12-14T18:08:31.797Z,22.60
2022-12-14T18:11:10.199Z,19.00
2022-12-14T18:13:45.749Z,21.70
2022-12-14T18:16:22.961Z,20.40
2022-12-14T18:18:55.436Z,18.70
2022-12-14T18:21:30.174Z,19.60
2022-12-14T18:24:02.421Z,17.30
2022-12-14T18:26:34.678Z,18.70
2022-12-14T18:29:06.865Z,20.00
2022-12-14T18:31:39.288Z,19.50
2022-12-14T18:34:12.559Z,19.20
2022-12-14T18:36:44.741Z,16.90
2022-12-14T18:39:16.945Z,19.80
2022-12-14T18:41:49.268Z,19.40
2022-12-14T18:44:21.553Z,18.10
2022-12-14T18:46:54.543Z,15.90
2022-12-14T18:49:26.858Z,17.10
2022-12-14T18:51:59.063Z,18.20
2022-12-14T18:54:31.060Z,18.90
2022-12-14T18:57:03.282Z,18.60
2022-12-14T18:59:39.178Z,17.40
2022-12-14T19:02:18.000Z,17.30
2022-12-14T19:04:51.154Z,16.90
2022-12-14T19:07:23.343Z,17.00
2022-12-14T19:09:55.577Z,17.30
2022-12-14T19:12:28.506Z,14.70
2022-12-14T19:15:00.926Z,16.40
2022-12-14T19:17:33.897Z,16.70
2022-12-14T19:20:07.676Z,18.00
2022-12-14T19:22:40.665Z,14.40
2022-12-14T19:25:13.436Z,16.50
2022-12-14T19:30:37.953Z,15.90
2022-12-14T19:33:10.774Z,16.90
2022-12-14T19:38:17.063Z,14.00
2022-12-14T19:41:10.600Z,14.90
2022-12-14T19:43:42.790Z,15.30
2022-12-14T19:46:16.315Z,13.50
2022-12-14T19:48:49.423Z,15.50
2022-12-14T19:53:55.013Z,14.00
2022-12-14T19:56:27.271Z,13.70
2022-12-14T19:59:04.022Z,14.60
2022-12-14T20:01:41.957Z,14.80
2022-12-14T20:04:17.431Z,14.50
2022-12-14T20:06:49.673Z,13.70
2022-12-14T20:09:21.967Z,13.20
2022-12-14T20:11:54.135Z,12.90
2022-12-14T20:14:26.829Z,15.50
2022-12-14T20:16:59.035Z,14.30
2022-12-14T20:19:31.321Z,13.00
2022-12-14T20:22:04.161Z,13.30
2022-12-14T20:27:08.693Z,13.00
2022-12-14T20:29:41.930Z,12.60
2022-12-14T20:32:14.261Z,14.80
2022-12-14T20:34:46.457Z,13.10
2022-12-14T20:37:18.686Z,16.40
2022-12-14T20:39:50.979Z,14.60
2022-12-14T20:42:23.247Z,14.20
2022-12-14T20:44:55.478Z,14.70
2022-12-14T20:47:28.463Z,12.40
2022-12-14T20:50:00.735Z,14.00
2022-12-14T20:52:32.944Z,13.60
2022-12-14T20:55:06.192Z,14.60
2022-12-14T20:57:39.856Z,13.80
2022-12-14T21:00:12.893Z,14.60
2022-12-14T21:02:45.281Z,12.20
2022-12-14T21:05:17.530Z,13.10
2022-12-14T21:07:49.875Z,13.90
2022-12-14T21:10:22.003Z,12.50
2022-12-14T21:12:54.263Z,16.00
2022-12-14T21:15:26.498Z,14.10
2022-12-14T21:17:58.639Z,13.50
2022-12-14T21:20:30.803Z,14.50
2022-12-14T21:23:03.063Z,12.90
2022-12-14T21:25:35.295Z,13.90
2022-12-14T21:28:07.464Z,13.90
2022-12-14T21:30:39.689Z,14.20
2022-12-14T21:33:11.856Z,14.30
2022-12-14T21:35:43.882Z,15.00
2022-12-14T21:38:16.114Z,13.20
2022-12-14T21:41:14.291Z,12.20
2022-12-14T21:43:46.733Z,13.40
2022-12-14T21:46:19.490Z,12.40
2022-12-14T21:51:24.390Z,12.50
2022-12-14T21:56:57.203Z,12.00
2022-12-14T21:59:32.240Z,12.70
2022-12-14T22:02:07.027Z,12.20
2022-12-14T22:04:40.050Z,12.70
2022-12-14T22:07:22.326Z,12.60
2022-12-14T22:09:54.504Z,14.90
2022-12-14T22:12:26.978Z,11.90
2022-12-14T22:14:59.850Z,11.30
2022-12-14T22:17:32.532Z,14.50
2022-12-14T22:20:05.066Z,12.80
2022-12-14T22:22:37.324Z,11.70
2022-12-14T22:25:09.762Z,12.80
2022-12-14T22:27:42.117Z,12.80
2022-12-14T22:30:14.142Z,14.20
2022-12-14T22:32:46.981Z,14.60
2022-12-14T22:35:19.053Z,13.50
2022-12-14T22:37:51.277Z,13.50
2022-12-14T22:40:23.541Z,13.90
2022-12-14T22:42:56.226Z,13.60
2022-12-14T22:45:28.578Z,12.90
2022-12-14T22:48:00.744Z,14.40
2022-12-14T22:50:33.582Z,16.30
2022-12-14T22:55:38.735Z,12.10
2022-12-14T22:58:11.540Z,11.90
2022-12-14T23:03:16.835Z,13.60
2022-12-14T23:05:50.077Z,14.00
2022-12-14T23:08:22.306Z,13.10
2022-12-14T23:11:13.224Z,13.40
2022-12-14T23:14:04.089Z,13.50
2022-12-14T23:16:55.137Z,12.60
2022-12-14T23:19:46.072Z,11.60
2022-12-14T23:22:37.486Z,12.60
2022-12-14T23:25:29.750Z,10.90
2022-12-14T23:28:21.223Z,13.80
2022-12-14T23:31:12.340Z,12.60
2022-12-14T23:34:03.292Z,13.20
2022-12-14T23:36:54.111Z,12.70
2022-12-14T23:39:45.556Z,10.80
2022-12-14T23:42:36.537Z,12.50
2022-12-14T23:45:29.473Z,12.80
2022-12-14T23:48:20.523Z,11.30
2022-12-14T23:51:11.531Z,10.00
2022-12-14T23:54:02.580Z,11.70
2022-12-14T23:56:54.734Z,13.20
2022-12-14T23:59:49.571Z,10.40
